Time;durP1;ratioP1;P1;durP2;ratioP2;P2;SDS_P1;SDS_P2;PMS_P1;PMS_P2;Temp;Humidity;BMP_temperature;BMP_pressure;BME280_temperature;BME280_humidity;BME280_pressure;Samples;Min_cycle;Max_cycle;Signal;HPM_P1;HPM_P2
2022/10/17 00:01:01;;;;;;;0.50;0.30;;;15.30;99.90;;;;;;5034065;28;20468;-75
2022/10/17 00:03:28;;;;;;;0.50;0.33;;;15.30;99.90;;;;;;5033939;28;20465;-75
2022/10/17 00:05:55;;;;;;;0.50;0.40;;;15.20;99.90;;;;;;5033626;28;20535;-75
2022/10/17 00:08:22;;;;;;;0.50;0.30;;;15.20;99.90;;;;;;5034296;28;20446;-76
2022/10/17 00:10:57;;;;;;;0.50;0.30;;;15.20;99.90;;;;;;5033384;28;20488;-75
2022/10/17 00:13:24;;;;;;;0.50;0.30;;;15.20;99.90;;;;;;5033972;28;20422;-75
2022/10/17 00:15:52;;;;;;;0.50;0.30;;;15.20;99.90;;;;;;5033707;28;20557;-75
2022/10/17 00:18:19;;;;;;;0.50;0.33;;;15.20;99.90;;;;;;5033580;28;20445;-75
2022/10/17 00:20:46;;;;;;;0.50;0.37;;;15.30;99.90;;;;;;5033432;28;20470;-75
2022/10/17 00:23:12;;;;;;;0.63;0.63;;;15.40;99.90;;;;;;5033952;28;20437;-75
2022/10/17 00:25:40;;;;;;;0.50;0.40;;;15.50;99.90;;;;;;5033300;28;21022;-75
2022/10/17 00:28:08;;;;;;;0.60;0.50;;;15.50;99.90;;;;;;5033699;28;20446;-75
2022/10/17 00:30:35;;;;;;;0.50;0.40;;;15.50;99.90;;;;;;5033422;28;20623;-74
2022/10/17 00:33:03;;;;;;;0.60;0.60;;;15.60;99.90;;;;;;5033518;28;20442;-75
2022/10/17 00:35:30;;;;;;;1.20;1.10;;;15.60;99.90;;;;;;5033403;28;20821;-75
2022/10/17 00:37:57;;;;;;;0.50;0.50;;;15.70;99.90;;;;;;5033638;28;20442;-75
2022/10/17 00:40:24;;;;;;;4.30;0.80;;;15.70;99.90;;;;;;5033076;28;20816;-75
2022/10/17 00:42:52;;;;;;;0.63;0.50;;;15.90;99.90;;;;;;5033283;28;20437;-75
2022/10/17 00:45:24;;;;;;;0.50;0.30;;;15.90;99.90;;;;;;5032807;28;20466;-75
2022/10/17 00:47:55;;;;;;;0.50;0.40;;;15.90;99.90;;;;;;5033527;28;20440;-75
2022/10/17 00:50:24;;;;;;;0.50;0.30;;;15.90;99.90;;;;;;5033315;28;20888;-76
2022/10/17 00:52:52;;;;;;;0.80;0.80;;;16.00;99.90;;;;;;5032771;28;20992;-75
2022/10/17 00:55:23;;;;;;;0.50;0.30;;;16.00;99.90;;;;;;5032091;28;20480;-76
2022/10/17 00:57:50;;;;;;;0.60;0.60;;;16.00;99.90;;;;;;5032804;28;20452;-75
2022/10/17 01:00:17;;;;;;;2.13;1.23;;;16.00;99.90;;;;;;5033098;28;20444;-76
2022/10/17 01:02:45;;;;;;;0.50;0.30;;;16.00;99.90;;;;;;5032751;28;20436;-76
2022/10/17 01:05:12;;;;;;;0.50;0.30;;;16.00;99.90;;;;;;5032756;28;20462;-75
2022/10/17 01:07:42;;;;;;;0.50;0.40;;;16.10;99.90;;;;;;5033042;28;20537;-75
2022/10/17 01:10:10;;;;;;;0.50;0.30;;;16.10;99.90;;;;;;5032752;28;20434;-75
2022/10/17 01:12:48;;;;;;;1.13;1.03;;;16.10;99.90;;;;;;5032877;28;20564;-74
2022/10/17 01:15:25;;;;;;;0.50;0.30;;;16.20;99.90;;;;;;5032519;28;20504;-75
2022/10/17 01:18:03;;;;;;;0.50;0.30;;;16.20;99.90;;;;;;5032669;28;20466;-75
2022/10/17 01:20:58;;;;;;;0.60;0.50;;;16.20;99.90;;;;;;5032508;28;20418;-75
2022/10/17 01:23:51;;;;;;;0.70;0.70;;;16.20;99.90;;;;;;4992592;28;20449;-75
2022/10/17 01:26:24;;;;;;;0.50;0.50;;;16.20;99.90;;;;;;5032639;28;20461;-75
2022/10/17 01:29:21;;;;;;;0.50;0.30;;;16.30;99.90;;;;;;5032441;28;20518;-76
2022/10/17 01:31:55;;;;;;;0.50;0.40;;;16.20;99.90;;;;;;5032389;28;20462;-75
2022/10/17 01:34:28;;;;;;;0.50;0.30;;;16.30;99.90;;;;;;5032387;28;20445;-75
2022/10/17 01:37:01;;;;;;;1.27;1.13;;;16.30;99.90;;;;;;5032428;28;20803;-75
2022/10/17 01:39:39;;;;;;;0.97;0.60;;;16.30;99.90;;;;;;5032599;28;20540;-75
2022/10/17 01:42:14;;;;;;;0.60;0.50;;;16.30;99.90;;;;;;5032329;28;20819;-75
2022/10/17 01:44:48;;;;;;;0.50;0.40;;;16.40;99.90;;;;;;5032059;28;20441;-75
2022/10/17 01:47:20;;;;;;;0.50;0.30;;;16.40;99.90;;;;;;5032254;28;20441;-75
2022/10/17 01:49:51;;;;;;;1.37;0.70;;;16.40;99.90;;;;;;5024054;28;20444;-75
2022/10/17 01:52:23;;;;;;;2.23;1.90;;;16.40;99.90;;;;;;5011556;28;20465;-76
2022/10/17 01:54:53;;;;;;;1.00;0.70;;;16.50;99.90;;;;;;5011958;28;20481;-76
2022/10/17 01:57:28;;;;;;;0.90;0.90;;;16.50;99.90;;;;;;5012430;28;20423;-75
2022/10/17 01:59:56;;;;;;;2.60;2.40;;;16.50;99.90;;;;;;5012425;28;20470;-76
2022/10/17 02:02:26;;;;;;;3.33;1.80;;;16.50;99.90;;;;;;5011932;28;21036;-75
2022/10/17 02:04:55;;;;;;;0.50;0.30;;;16.60;99.90;;;;;;5012046;28;20802;-76
2022/10/17 02:07:22;;;;;;;1.80;1.70;;;16.60;99.90;;;;;;5011930;28;20980;-76
2022/10/17 02:09:49;;;;;;;1.03;0.70;;;16.60;99.90;;;;;;5011409;28;20451;-76
2022/10/17 02:12:29;;;;;;;0.50;0.40;;;16.70;99.90;;;;;;5011961;28;20830;-75
2022/10/17 02:15:21;;;;;;;0.50;0.30;;;16.70;99.90;;;;;;5011755;28;20988;-76
2022/10/17 02:17:57;;;;;;;0.73;0.63;;;16.70;99.90;;;;;;5011778;28;20445;-75
2022/10/17 02:20:29;;;;;;;0.50;0.40;;;16.70;99.90;;;;;;5011716;28;20453;-76
2022/10/17 02:22:59;;;;;;;0.50;0.30;;;16.70;99.90;;;;;;5012003;28;20441;-75
2022/10/17 02:25:35;;;;;;;0.87;0.70;;;16.60;99.90;;;;;;5011447;28;20489;-74
2022/10/17 02:28:09;;;;;;;0.77;0.77;;;16.70;99.90;;;;;;5011670;28;20534;-76
2022/10/17 02:30:40;;;;;;;1.03;0.60;;;16.70;99.90;;;;;;5011962;28;20438;-76
2022/10/17 02:33:12;;;;;;;0.60;0.60;;;16.70;99.90;;;;;;5011475;28;20565;-75
2022/10/17 02:35:45;;;;;;;0.50;0.30;;;16.80;99.90;;;;;;5011425;28;20465;-75
2022/10/17 02:38:13;;;;;;;0.50;0.30;;;16.70;99.90;;;;;;5011808;28;20526;-75
2022/10/17 02:40:42;;;;;;;0.50;0.37;;;16.70;99.90;;;;;;5011697;28;20443;-74
2022/10/17 02:43:09;;;;;;;0.53;0.43;;;16.80;99.90;;;;;;5011699;28;20443;-75
2022/10/17 02:45:37;;;;;;;0.50;0.40;;;16.80;99.90;;;;;;5011544;28;20562;-75
2022/10/17 02:48:06;;;;;;;0.50;0.30;;;16.70;99.90;;;;;;5010974;28;20445;-75
2022/10/17 02:50:44;;;;;;;1.20;0.70;;;16.70;99.90;;;;;;5011702;28;20817;-75
2022/10/17 02:53:16;;;;;;;0.60;0.53;;;16.80;99.90;;;;;;5010863;28;20956;-75
2022/10/17 02:55:50;;;;;;;0.60;0.60;;;16.80;99.90;;;;;;5010857;28;20983;-75
2022/10/17 02:58:21;;;;;;;0.50;0.40;;;16.80;99.90;;;;;;5011421;28;21256;-75
2022/10/17 03:00:49;;;;;;;0.50;0.40;;;16.80;99.90;;;;;;5011142;28;20423;-75
2022/10/17 03:03:22;;;;;;;0.50;0.30;;;16.80;99.90;;;;;;5011502;28;20443;-75
2022/10/17 03:05:51;;;;;;;0.50;0.30;;;16.80;99.90;;;;;;5011065;28;20839;-75
2022/10/17 03:08:18;;;;;;;1.13;0.90;;;16.90;99.90;;;;;;5011156;28;21039;-75
2022/10/17 03:10:44;;;;;;;1.80;1.70;;;16.80;99.90;;;;;;5011649;28;20533;-75
2022/10/17 03:13:11;;;;;;;0.60;0.50;;;16.90;99.90;;;;;;5011003;28;20646;-75
2022/10/17 03:15:38;;;;;;;0.50;0.30;;;16.90;99.90;;;;;;5011042;28;20824;-75
2022/10/17 03:18:05;;;;;;;0.60;0.60;;;16.90;99.90;;;;;;5011267;28;20441;-75
2022/10/17 03:20:32;;;;;;;0.50;0.30;;;16.90;99.90;;;;;;5013742;28;20537;-75
2022/10/17 03:23:00;;;;;;;2.90;2.30;;;16.90;99.90;;;;;;5015212;28;20521;-75
2022/10/17 03:25:27;;;;;;;0.97;0.90;;;17.00;99.90;;;;;;5014719;28;20501;-73
2022/10/17 03:27:54;;;;;;;0.70;0.60;;;17.00;99.90;;;;;;5015052;28;20812;-75
2022/10/17 03:30:21;;;;;;;0.50;0.40;;;17.00;99.90;;;;;;5014778;28;20815;-75
2022/10/17 03:32:48;;;;;;;0.50;0.30;;;16.90;99.90;;;;;;5014586;28;20481;-75
2022/10/17 03:35:15;;;;;;;7.83;1.77;;;16.90;99.90;;;;;;5014595;28;20545;-75
2022/10/17 03:37:41;;;;;;;2.50;2.00;;;16.90;99.90;;;;;;5015156;28;20438;-75
2022/10/17 03:40:10;;;;;;;1.00;0.67;;;16.90;99.90;;;;;;5014364;28;20828;-75
2022/10/17 03:42:37;;;;;;;0.50;0.30;;;16.90;99.90;;;;;;5015088;28;20442;-74
2022/10/17 03:45:05;;;;;;;0.60;0.50;;;16.90;99.90;;;;;;5014081;28;20465;-75
2022/10/17 03:47:32;;;;;;;0.50;0.40;;;16.90;99.90;;;;;;5014591;28;20439;-74
2022/10/17 03:49:59;;;;;;;0.70;0.50;;;17.00;99.90;;;;;;5014039;28;20442;-75
2022/10/17 03:52:25;;;;;;;1.63;1.53;;;17.00;99.90;;;;;;5014282;28;20475;-75
2022/10/17 03:54:52;;;;;;;0.50;0.40;;;17.00;99.90;;;;;;5014132;28;20466;-76
2022/10/17 03:57:20;;;;;;;0.50;0.40;;;17.00;99.90;;;;;;5014323;28;20525;-75
2022/10/17 03:59:47;;;;;;;1.53;1.43;;;17.00;99.90;;;;;;5014787;28;20435;-75
2022/10/17 04:02:14;;;;;;;0.87;0.50;;;17.00;99.90;;;;;;5014172;28;20435;-75
2022/10/17 04:04:41;;;;;;;0.50;0.40;;;16.90;99.90;;;;;;5014119;28;20529;-75
2022/10/17 04:07:08;;;;;;;0.60;0.40;;;16.90;99.90;;;;;;5014357;28;20530;-75
2022/10/17 04:09:34;;;;;;;0.50;0.40;;;16.90;99.90;;;;;;5014337;28;20482;-74
2022/10/17 04:12:01;;;;;;;0.50;0.40;;;16.90;99.90;;;;;;5014140;28;20478;-75
2022/10/17 04:14:29;;;;;;;1.03;0.93;;;16.90;99.90;;;;;;5014140;28;20466;-75
2022/10/17 04:16:56;;;;;;;0.60;0.60;;;16.90;99.90;;;;;;5014393;28;20430;-74
2022/10/17 04:19:24;;;;;;;0.83;0.83;;;17.00;99.90;;;;;;5014206;28;20444;-75
2022/10/17 04:21:51;;;;;;;0.50;0.40;;;17.00;99.90;;;;;;5013935;28;20447;-75
2022/10/17 04:24:18;;;;;;;0.50;0.30;;;17.00;99.90;;;;;;5013325;28;21007;-75
2022/10/17 04:26:45;;;;;;;0.50;0.40;;;17.00;99.90;;;;;;5013723;28;20494;-75
2022/10/17 04:29:12;;;;;;;5.87;4.53;;;17.00;99.90;;;;;;5013969;28;20956;-75
2022/10/17 04:31:40;;;;;;;1.37;1.17;;;17.00;99.90;;;;;;5013018;28;20561;-74
2022/10/17 04:34:07;;;;;;;0.60;0.53;;;16.90;99.90;;;;;;5013030;28;21046;-75
2022/10/17 04:36:34;;;;;;;1.80;1.63;;;16.90;99.90;;;;;;5013673;28;20470;-74
2022/10/17 04:39:02;;;;;;;0.50;0.40;;;16.90;99.90;;;;;;5013877;28;20871;-75
2022/10/17 04:41:29;;;;;;;0.50;0.40;;;17.00;99.90;;;;;;5013999;28;20439;-74
2022/10/17 04:43:55;;;;;;;0.57;0.57;;;17.00;99.90;;;;;;5013529;28;20835;-74
2022/10/17 04:46:22;;;;;;;0.50;0.40;;;17.00;99.90;;;;;;5013716;28;20541;-75
2022/10/17 04:48:51;;;;;;;0.80;0.70;;;17.10;99.90;;;;;;5013479;28;20458;-75
2022/10/17 04:51:18;;;;;;;0.50;0.50;;;17.10;99.90;;;;;;5012907;28;20447;-75
2022/10/17 04:53:46;;;;;;;2.10;2.00;;;17.20;99.90;;;;;;5013122;28;20561;-75
2022/10/17 04:56:14;;;;;;;2.33;2.20;;;17.20;99.90;;;;;;5012969;28;20521;-75
2022/10/17 04:58:42;;;;;;;0.87;0.83;;;17.20;99.90;;;;;;5013080;28;21012;-74
2022/10/17 05:01:10;;;;;;;0.60;0.50;;;17.10;99.90;;;;;;5012985;28;21042;-75
2022/10/17 05:03:38;;;;;;;1.00;0.97;;;17.10;99.90;;;;;;5012879;28;20982;-75
2022/10/17 05:06:08;;;;;;;7.63;1.23;;;17.10;99.90;;;;;;5014030;28;20547;-75
2022/10/17 05:08:35;;;;;;;1.00;0.83;;;17.10;99.90;;;;;;5015019;28;20541;-75
2022/10/17 05:11:02;;;;;;;4.63;0.60;;;17.20;99.90;;;;;;5012974;28;20447;-75
2022/10/17 05:13:29;;;;;;;1.63;1.40;;;17.20;99.90;;;;;;5013233;28;20471;-75
2022/10/17 05:15:59;;;;;;;2.20;1.43;;;17.20;99.90;;;;;;5012603;28;20465;-74
2022/10/17 05:18:26;;;;;;;0.77;0.77;;;17.20;99.90;;;;;;5013078;28;20473;-75
2022/10/17 05:20:53;;;;;;;0.70;0.60;;;17.20;99.90;;;;;;5012802;28;20439;-75
2022/10/17 05:23:21;;;;;;;1.30;1.20;;;17.20;99.90;;;;;;5012593;28;20439;-75
2022/10/17 05:25:48;;;;;;;1.10;0.87;;;17.20;99.90;;;;;;5012464;28;20463;-74
2022/10/17 05:28:15;;;;;;;0.70;0.70;;;17.30;99.90;;;;;;5012899;28;20481;-74
2022/10/17 05:30:42;;;;;;;0.50;0.40;;;17.30;99.90;;;;;;5014174;28;20503;-74
2022/10/17 05:33:08;;;;;;;0.97;0.97;;;17.30;99.90;;;;;;5012297;28;20475;-74
2022/10/17 05:35:36;;;;;;;0.50;0.40;;;17.20;99.90;;;;;;5011344;28;21002;-74
2022/10/17 05:38:03;;;;;;;1.37;1.27;;;17.30;99.90;;;;;;5012631;28;20533;-74
2022/10/17 05:40:31;;;;;;;0.50;0.40;;;17.30;99.90;;;;;;5012167;28;20479;-75
2022/10/17 05:42:58;;;;;;;1.00;0.90;;;17.20;99.90;;;;;;5011811;28;20530;-74
2022/10/17 05:45:24;;;;;;;0.70;0.70;;;17.30;99.90;;;;;;5011648;28;20502;-74
2022/10/17 05:47:51;;;;;;;0.50;0.40;;;17.30;99.90;;;;;;5012307;28;20789;-75
2022/10/17 05:50:20;;;;;;;0.50;0.40;;;17.30;99.90;;;;;;5012276;28;20860;-75
2022/10/17 05:52:47;;;;;;;0.50;0.40;;;17.30;99.90;;;;;;5011810;28;20479;-75
2022/10/17 05:55:14;;;;;;;0.63;0.63;;;17.30;99.90;;;;;;5011128;28;20554;-74
2022/10/17 05:57:42;;;;;;;0.50;0.40;;;17.30;99.90;;;;;;5011808;28;20457;-75
2022/10/17 06:00:10;;;;;;;0.50;0.30;;;17.30;99.90;;;;;;5011884;28;21002;-77
2022/10/17 06:02:37;;;;;;;0.50;0.40;;;17.30;99.90;;;;;;5012077;28;20470;-77
2022/10/17 06:05:04;;;;;;;1.57;1.47;;;17.30;99.90;;;;;;5011546;28;20462;-76
2022/10/17 06:07:31;;;;;;;0.50;0.30;;;17.30;99.90;;;;;;5012371;28;20441;-76
2022/10/17 06:09:57;;;;;;;1.20;1.10;;;17.30;99.90;;;;;;5011666;28;21052;-76
2022/10/17 06:12:24;;;;;;;1.07;0.93;;;17.30;99.90;;;;;;5011930;28;20503;-76
2022/10/17 06:14:52;;;;;;;2.30;0.80;;;17.30;99.90;;;;;;5011770;28;20541;-76
2022/10/17 06:17:19;;;;;;;0.70;0.50;;;17.30;99.90;;;;;;5012072;28;20813;-75
2022/10/17 06:19:46;;;;;;;2.00;1.90;;;17.30;99.90;;;;;;5011692;28;20439;-76
2022/10/17 06:22:13;;;;;;;1.80;1.43;;;17.30;99.90;;;;;;5011857;28;20948;-76
2022/10/17 06:24:40;;;;;;;1.33;0.70;;;17.40;99.90;;;;;;5011619;28;20533;-76
2022/10/17 06:27:07;;;;;;;0.60;0.40;;;17.40;99.90;;;;;;5012098;28;20794;-76
2022/10/17 06:29:33;;;;;;;0.50;0.30;;;17.40;99.90;;;;;;5012083;28;20438;-76
2022/10/17 06:32:02;;;;;;;1.67;0.80;;;17.40;99.90;;;;;;5011478;28;20474;-76
2022/10/17 06:34:28;;;;;;;0.73;0.60;;;17.50;99.90;;;;;;5011626;28;20478;-74
2022/10/17 06:36:55;;;;;;;0.50;0.30;;;17.60;99.90;;;;;;5011318;28;20530;-76
2022/10/17 06:39:23;;;;;;;0.60;0.50;;;17.60;99.90;;;;;;5012115;28;20543;-75
2022/10/17 06:41:50;;;;;;;1.37;1.27;;;17.60;99.90;;;;;;5011495;28;20446;-76
2022/10/17 06:44:17;;;;;;;0.50;0.30;;;17.60;99.90;;;;;;5011456;28;20462;-76
2022/10/17 06:46:44;;;;;;;0.50;0.30;;;17.60;99.90;;;;;;5011253;28;20502;-75
2022/10/17 06:49:12;;;;;;;0.83;0.80;;;17.70;99.90;;;;;;5011595;28;20445;-76
2022/10/17 06:51:39;;;;;;;0.50;0.40;;;17.70;99.90;;;;;;5010574;28;20531;-73
2022/10/17 06:54:06;;;;;;;1.43;1.07;;;17.80;99.90;;;;;;5012054;28;20859;-75
2022/10/17 06:56:33;;;;;;;0.60;0.40;;;17.80;99.90;;;;;;5017479;28;20474;-75
2022/10/17 06:58:59;;;;;;;0.63;0.60;;;17.90;99.90;;;;;;5018108;28;20443;-76
2022/10/17 07:01:27;;;;;;;0.50;0.40;;;17.90;99.90;;;;;;5018003;28;20438;-76
2022/10/17 07:03:54;;;;;;;1.00;0.83;;;18.00;99.90;;;;;;5017555;28;20828;-74
2022/10/17 07:06:23;;;;;;;1.93;1.83;;;18.10;99.90;;;;;;5018017;28;20458;-76
2022/10/17 07:08:51;;;;;;;0.70;0.50;;;18.10;99.90;;;;;;5018133;28;20474;-77
2022/10/17 07:11:19;;;;;;;0.50;0.40;;;18.20;99.90;;;;;;5017948;28;20434;-76
2022/10/17 07:13:47;;;;;;;1.47;0.80;;;18.30;99.90;;;;;;5017873;28;20577;-76
2022/10/17 07:16:15;;;;;;;1.90;1.67;;;18.30;99.90;;;;;;5017901;28;20459;-75
2022/10/17 07:18:42;;;;;;;0.50;0.40;;;18.40;99.90;;;;;;5017992;28;20529;-76
2022/10/17 07:21:09;;;;;;;1.80;1.60;;;18.40;99.90;;;;;;5017860;28;20493;-76
2022/10/17 07:23:38;;;;;;;0.53;0.37;;;18.60;99.90;;;;;;5017731;28;20799;-77
2022/10/17 07:26:07;;;;;;;0.67;0.67;;;18.70;99.90;;;;;;5017562;28;20479;-76
2022/10/17 07:28:35;;;;;;;0.97;0.67;;;18.90;99.90;;;;;;5017906;28;20438;-73
2022/10/17 07:31:06;;;;;;;1.03;0.63;;;19.10;99.90;;;;;;5017372;28;20793;-76
2022/10/17 07:33:33;;;;;;;1.20;0.80;;;19.30;99.90;;;;;;5017189;28;21113;-76
2022/10/17 07:36:00;;;;;;;1.33;0.90;;;19.60;99.90;;;;;;5017429;28;20477;-77
2022/10/17 07:38:28;;;;;;;0.50;0.30;;;19.70;99.90;;;;;;5017480;28;20440;-76
2022/10/17 07:40:57;;;;;;;0.50;0.40;;;19.80;99.90;;;;;;5017996;28;20533;-76
2022/10/17 07:43:24;;;;;;;0.50;0.33;;;20.20;99.90;;;;;;5016941;28;20439;-76
2022/10/17 07:45:51;;;;;;;0.50;0.30;;;20.40;99.90;;;;;;5017568;28;20459;-75
2022/10/17 07:48:19;;;;;;;0.70;0.53;;;20.60;99.90;;;;;;5017277;28;20469;-75
2022/10/17 07:50:46;;;;;;;0.60;0.43;;;20.50;99.90;;;;;;5017571;28;20445;-75
2022/10/17 07:53:13;;;;;;;0.60;0.40;;;20.30;99.90;;;;;;5016886;28;20557;-74
2022/10/17 07:55:40;;;;;;;0.60;0.60;;;20.20;99.90;;;;;;5016885;28;20908;-75
2022/10/17 07:58:09;;;;;;;0.70;0.47;;;20.20;99.90;;;;;;5017143;28;20465;-73
2022/10/17 08:00:36;;;;;;;0.60;0.60;;;20.20;99.90;;;;;;5026238;28;20452;-75
2022/10/17 08:03:04;;;;;;;0.60;0.40;;;20.20;99.90;;;;;;5017177;28;20554;-77
2022/10/17 08:05:31;;;;;;;0.70;0.70;;;20.90;99.90;;;;;;5016318;28;20463;-73
2022/10/17 08:07:58;;;;;;;0.63;0.57;;;21.80;99.90;;;;;;5013070;28;20461;-77
2022/10/17 08:10:26;;;;;;;0.60;0.53;;;22.80;99.90;;;;;;5014025;28;20434;-76
2022/10/17 08:12:53;;;;;;;1.10;0.87;;;23.40;99.90;;;;;;5014073;28;20451;-76
2022/10/17 08:15:22;;;;;;;0.80;0.50;;;24.10;99.90;;;;;;5013824;28;20902;-76
2022/10/17 08:17:49;;;;;;;0.90;0.63;;;24.50;99.90;;;;;;5014020;28;20924;-76
2022/10/17 08:20:16;;;;;;;0.60;0.50;;;24.90;99.90;;;;;;5013610;28;20525;-76
2022/10/17 08:22:43;;;;;;;0.60;0.53;;;25.00;99.90;;;;;;5013873;28;20457;-76
2022/10/17 08:25:10;;;;;;;0.50;0.30;;;25.40;99.90;;;;;;5013639;28;20467;-77
2022/10/17 08:27:37;;;;;;;6.23;1.80;;;25.80;99.90;;;;;;5013787;28;20446;-76
2022/10/17 08:30:04;;;;;;;0.50;0.37;;;26.20;99.90;;;;;;5013722;28;20522;-77
2022/10/17 08:32:32;;;;;;;0.70;0.67;;;26.30;99.90;;;;;;5013855;28;20805;-77
2022/10/17 08:35:00;;;;;;;2.20;2.00;;;26.10;99.90;;;;;;5013011;28;21115;-76
2022/10/17 08:37:26;;;;;;;0.50;0.30;;;26.00;99.90;;;;;;5013993;28;20538;-76
2022/10/17 08:39:53;;;;;;;0.80;0.63;;;26.10;99.90;;;;;;5013789;28;20551;-77
2022/10/17 08:42:38;;;;;;;0.50;0.30;;;26.20;99.90;;;;;;5013193;28;20453;-76
2022/10/17 08:45:16;;;;;;;0.80;0.60;;;25.80;99.90;;;;;;5012989;28;20972;-77
2022/10/17 08:47:47;;;;;;;0.50;0.30;;;25.20;99.90;;;;;;5013341;28;20423;-76
2022/10/17 08:50:20;;;;;;;0.50;0.30;;;25.00;99.90;;;;;;5024915;28;20456;-76
2022/10/17 08:52:52;;;;;;;1.67;0.97;;;24.50;99.90;;;;;;5012362;28;20443;-76
2022/10/17 08:55:26;;;;;;;0.50;0.40;;;23.90;99.90;;;;;;5012377;28;20494;-76
2022/10/17 08:57:53;;;;;;;0.70;0.70;;;23.20;99.90;;;;;;5013333;28;20513;-76
2022/10/17 09:00:21;;;;;;;0.50;0.40;;;22.60;99.90;;;;;;5013087;28;20466;-76
2022/10/17 09:03:05;;;;;;;1.23;0.90;;;22.40;99.90;;;;;;5013016;28;20481;-76
2022/10/17 09:05:44;;;;;;;0.50;0.40;;;22.50;99.90;;;;;;5020077;28;20982;-74
2022/10/17 09:08:28;;;;;;;1.83;1.07;;;23.10;99.90;;;;;;5031823;28;20513;-76
2022/10/17 09:11:03;;;;;;;0.60;0.57;;;22.80;99.90;;;;;;5031882;28;20438;-76
2022/10/17 09:13:42;;;;;;;0.50;0.30;;;23.00;99.90;;;;;;5032595;28;20990;-76
2022/10/17 09:16:28;;;;;;;0.70;0.70;;;23.20;99.90;;;;;;5031652;28;20469;-76
2022/10/17 09:19:03;;;;;;;1.73;0.93;;;23.40;99.90;;;;;;5032279;28;20446;-76
2022/10/17 09:21:39;;;;;;;1.13;0.40;;;23.00;99.90;;;;;;5032555;28;20424;-76
2022/10/17 09:24:15;;;;;;;1.33;1.17;;;22.90;99.90;;;;;;5032178;28;20509;-76
2022/10/17 09:26:44;;;;;;;0.50;0.40;;;23.20;99.90;;;;;;5032403;28;20465;-76
2022/10/17 09:29:18;;;;;;;0.70;0.60;;;23.20;99.90;;;;;;5032565;28;20441;-75
2022/10/17 09:31:49;;;;;;;1.43;1.00;;;23.40;99.90;;;;;;5032097;28;20438;-75
2022/10/17 09:34:17;;;;;;;0.70;0.70;;;23.30;99.90;;;;;;5031960;28;20801;-75
2022/10/17 09:36:44;;;;;;;1.43;1.17;;;23.40;99.90;;;;;;5031871;28;20461;-75
2022/10/17 09:39:14;;;;;;;0.60;0.50;;;23.30;99.90;;;;;;5031776;28;20446;-76
2022/10/17 09:41:43;;;;;;;0.90;0.60;;;23.10;99.90;;;;;;5031869;28;20449;-73
2022/10/17 09:44:17;;;;;;;3.63;1.30;;;22.90;99.90;;;;;;5032263;28;20461;-75
2022/10/17 09:47:05;;;;;;;1.70;1.60;;;22.40;99.90;;;;;;5032325;28;20901;-75
2022/10/17 09:49:35;;;;;;;0.50;0.30;;;22.00;99.90;;;;;;5031817;28;20430;-75
2022/10/17 09:52:04;;;;;;;0.60;0.53;;;21.70;99.90;;;;;;5031858;28;20434;-75
2022/10/17 09:54:41;;;;;;;0.70;0.70;;;21.40;99.90;;;;;;5031375;28;20473;-73
2022/10/17 09:57:10;;;;;;;0.60;0.50;;;21.10;99.90;;;;;;5031979;28;20429;-76
2022/10/17 09:59:39;;;;;;;1.53;1.43;;;21.00;99.90;;;;;;5031448;28;20442;-72
2022/10/17 10:02:15;;;;;;;0.97;0.60;;;21.00;99.90;;;;;;5031554;28;20797;-76
2022/10/17 10:04:55;;;;;;;0.50;0.30;;;20.90;99.90;;;;;;5031271;28;20913;-76
2022/10/17 10:07:22;;;;;;;0.50;0.30;;;20.80;99.90;;;;;;5031872;28;20741;-76
2022/10/17 10:09:50;;;;;;;0.60;0.50;;;20.70;99.90;;;;;;5031398;28;20448;-75
2022/10/17 10:12:19;;;;;;;1.13;1.00;;;20.60;99.90;;;;;;5031606;28;20957;-75
2022/10/17 10:14:46;;;;;;;0.50;0.30;;;20.60;99.90;;;;;;5031210;28;21082;-76
2022/10/17 10:17:28;;;;;;;0.80;0.50;;;20.50;99.90;;;;;;5031276;28;20441;-76
2022/10/17 10:19:56;;;;;;;0.50;0.40;;;20.50;99.90;;;;;;5031530;28;20792;-76
2022/10/17 10:22:23;;;;;;;0.50;0.40;;;20.40;99.90;;;;;;5031752;28;20791;-76
2022/10/17 10:25:07;;;;;;;0.50;0.30;;;20.30;99.90;;;;;;5031366;28;20469;-76
2022/10/17 10:27:34;;;;;;;0.50;0.40;;;20.20;99.90;;;;;;5031304;28;20448;-72
2022/10/17 10:30:02;;;;;;;0.50;0.40;;;20.10;99.90;;;;;;5031392;28;20449;-75
2022/10/17 10:32:31;;;;;;;0.50;0.30;;;20.10;99.90;;;;;;5031257;28;20438;-76
2022/10/17 10:35:03;;;;;;;0.60;0.47;;;20.10;99.90;;;;;;5030881;28;20484;-76
2022/10/17 10:37:37;;;;;;;0.50;0.30;;;20.30;99.90;;;;;;5031200;28;20446;-75
2022/10/17 10:40:06;;;;;;;0.50;0.40;;;20.40;99.90;;;;;;5031703;28;20436;-76
2022/10/17 10:42:36;;;;;;;1.63;1.57;;;20.50;99.90;;;;;;5031404;28;20537;-75
2022/10/17 10:45:14;;;;;;;0.60;0.50;;;20.80;99.90;;;;;;5031637;28;20450;-76
2022/10/17 10:47:51;;;;;;;0.60;0.50;;;20.90;99.90;;;;;;5031242;28;20804;-75
2022/10/17 10:50:29;;;;;;;1.37;1.17;;;21.00;99.90;;;;;;5031295;28;20424;-76
2022/10/17 10:53:12;;;;;;;0.70;0.70;;;21.10;99.90;;;;;;5030575;28;20927;-75
2022/10/17 10:55:46;;;;;;;0.50;0.30;;;21.10;99.90;;;;;;5030667;28;20481;-76
2022/10/17 10:58:29;;;;;;;0.70;0.50;;;21.00;99.90;;;;;;5030915;28;20452;-76
2022/10/17 11:00:59;;;;;;;2.70;1.10;;;21.00;99.90;;;;;;5031141;28;20424;-76
2022/10/17 11:03:31;;;;;;;0.50;0.40;;;20.80;99.90;;;;;;5030846;28;20441;-76
2022/10/17 11:06:04;;;;;;;0.50;0.50;;;20.60;99.90;;;;;;5031966;28;20843;-75
2022/10/17 11:08:38;;;;;;;0.50;0.30;;;20.50;99.90;;;;;;5031439;28;20833;-75
2022/10/17 11:11:16;;;;;;;0.50;0.40;;;20.40;99.90;;;;;;5031632;28;20427;-75
2022/10/17 11:13:47;;;;;;;0.60;0.50;;;20.40;99.90;;;;;;5030734;28;20446;-72
2022/10/17 11:16:27;;;;;;;1.23;1.00;;;20.40;99.90;;;;;;5030852;28;20542;-75
2022/10/17 11:18:59;;;;;;;0.50;0.30;;;20.40;99.90;;;;;;5031062;28;20426;-75
2022/10/17 11:21:38;;;;;;;0.50;0.30;;;20.20;99.90;;;;;;5030974;28;20450;-75
2022/10/17 11:24:12;;;;;;;0.50;0.40;;;20.30;99.90;;;;;;5030555;28;20807;-74
2022/10/17 11:26:45;;;;;;;0.50;0.30;;;20.40;99.90;;;;;;5030099;28;20457;-74
2022/10/17 11:29:13;;;;;;;0.50;0.30;;;20.40;99.90;;;;;;5030839;28;20773;-75
2022/10/17 11:31:44;;;;;;;0.50;0.40;;;20.40;99.90;;;;;;5030632;28;20434;-75
2022/10/17 11:34:20;;;;;;;0.50;0.37;;;20.40;99.90;;;;;;5030013;28;20441;-75
2022/10/17 11:36:52;;;;;;;0.50;0.30;;;20.30;99.90;;;;;;5030108;28;20824;-75
2022/10/17 11:39:27;;;;;;;0.50;0.40;;;20.30;99.90;;;;;;5030971;28;20418;-75
2022/10/17 11:42:00;;;;;;;0.50;0.30;;;20.30;99.90;;;;;;5032119;28;20809;-75
2022/10/17 11:44:32;;;;;;;0.50;0.30;;;20.20;99.90;;;;;;5034254;28;20750;-75
2022/10/17 11:47:03;;;;;;;1.03;0.93;;;20.20;99.90;;;;;;5034579;28;20430;-75
2022/10/17 11:49:36;;;;;;;0.50;0.40;;;20.20;99.90;;;;;;5034218;28;20513;-75
2022/10/17 11:52:18;;;;;;;0.50;0.30;;;20.20;99.90;;;;;;5033832;28;20446;-75
2022/10/17 11:54:50;;;;;;;0.53;0.53;;;20.20;99.90;;;;;;5033911;28;20569;-75
2022/10/17 11:57:39;;;;;;;2.20;0.60;;;20.30;99.90;;;;;;5034075;28;20436;-74
2022/10/17 12:00:22;;;;;;;0.80;0.60;;;20.40;99.90;;;;;;5034886;28;20442;-75
2022/10/17 12:02:57;;;;;;;0.50;0.30;;;20.40;99.90;;;;;;5034840;28;20444;-75
2022/10/17 12:05:28;;;;;;;0.50;0.30;;;20.50;99.90;;;;;;5033546;28;20460;-74
2022/10/17 12:08:02;;;;;;;0.90;0.90;;;20.60;99.90;;;;;;5033943;28;20943;-74
2022/10/17 12:10:37;;;;;;;0.50;0.30;;;20.50;99.90;;;;;;5034187;28;20426;-75
2022/10/17 12:13:41;;;;;;;0.60;0.50;;;20.50;99.90;;;;;;5033780;28;21017;-75
2022/10/17 12:16:43;;;;;;;0.60;0.60;;;20.50;99.90;;;;;;5033376;28;20539;-75
2022/10/17 12:19:29;;;;;;;0.50;0.30;;;20.40;99.90;;;;;;4953219;29;20532;-75
2022/10/17 12:22:05;;;;;;;0.70;0.63;;;20.40;99.90;;;;;;4952830;29;20843;-75
2022/10/17 12:24:40;;;;;;;0.60;0.50;;;20.30;99.90;;;;;;4952338;29;21051;-73
2022/10/17 12:27:38;;;;;;;0.50;0.30;;;20.20;99.90;;;;;;4953099;29;20489;-75
2022/10/17 12:30:16;;;;;;;0.50;0.30;;;20.10;99.90;;;;;;4947915;29;20452;-74
2022/10/17 12:33:05;;;;;;;0.50;0.30;;;20.10;99.90;;;;;;4952959;29;20429;-72
2022/10/17 12:35:34;;;;;;;0.50;0.40;;;20.00;99.90;;;;;;4952331;29;20488;-71
2022/10/17 12:38:28;;;;;;;0.50;0.40;;;20.00;99.90;;;;;;4953143;29;20441;-75
2022/10/17 12:41:11;;;;;;;1.53;1.23;;;19.90;99.90;;;;;;4952719;29;20426;-75
2022/10/17 12:43:50;;;;;;;0.50;0.30;;;19.80;99.90;;;;;;4949973;29;20453;-75
2022/10/17 12:46:52;;;;;;;0.50;0.40;;;19.70;99.90;;;;;;4953508;29;20477;-75
2022/10/17 12:49:39;;;;;;;0.50;0.30;;;19.60;99.90;;;;;;4967263;28;20438;-75
2022/10/17 12:52:48;;;;;;;1.87;1.70;;;19.50;99.90;;;;;;5032269;28;20438;-75
2022/10/17 12:55:17;;;;;;;0.50;0.30;;;19.40;99.90;;;;;;5032189;28;20485;-75
2022/10/17 12:57:56;;;;;;;0.50;0.30;;;19.30;99.90;;;;;;5032841;28;20448;-75
2022/10/17 13:00:31;;;;;;;0.50;0.30;;;19.30;99.90;;;;;;5032978;28;20851;-75
2022/10/17 13:03:05;;;;;;;0.50;0.30;;;19.20;99.90;;;;;;5033053;28;20432;-75
2022/10/17 13:05:35;;;;;;;0.97;0.80;;;19.20;99.90;;;;;;5032671;28;20457;-71
2022/10/17 13:08:05;;;;;;;0.50;0.40;;;19.10;99.90;;;;;;5033025;28;20423;-75